Aviation Digital Data Service (ADDS)

Output produced by METARs form (0224 UTC 22 February 2019)
found at http://www.aviationweather.gov/metar/data/
 
Forecast for: HEBL (ABU SIMBEL (RUIN, EG)
Text: TAF HEBL 212300Z 2200/2306 36008G18KT CAVOK
Forecast period: 0000 UTC 22 February 2019 to 0600 UTC 23 February 2019
Forecast type: FROM: standard forecast or significant change
Winds: from the N (360 degrees) at 9 MPH (8 knots; 4.1 m/s)
gusting to 21 MPH (18 knots; 9.3 m/s)
Visibility: 6 or more miles 10+ km)
Ceiling: unknown
Clouds: missing
Weather: NSW  (no significant weather)